Tiempo atmosférico en la estación meteorológica de Valverde, Santa Cruz de Tenerife (1070 m.)



Fecha
DESCASC
Temp. máxima en grados centígrados (hora)
DESCASC
Temp. mínima en grados centígrados (hora)
DESCASC
Temp. media en grados centígrados
DESCASC
Racha de viento máxima en m/sg (hora)
DESCASC
Velocidad máxima media en intervalos de 10 minutos(hora)
DESCASC
Precipitaciones diarias en mm
DESCASC
Precipitaciones de 00:00 a 06:00 en mm
DESCASC
Precipitaciones de 06:00 a 12:00 en mm
DESCASC
Precipitaciones de 12:00 a 18:00 en mm
DESCASC
Precipitaciones de 18:00 a 24:00 en mm
DESCASC
25-04-2019 17.8 (11:10) 5.9 (06:50) 11.8 9.17 (19:10) 6.39 (19:10) 0 0 0 0 0
24-04-2019 16.1 (16:00) 7.2 (21:10) 11.7 11.39 (00:40) 7.78 (00:20) 0.2 0 0.2 0 0
23-04-2019 12.6 (14:50) 8 (21:30) 10.3 15.56 (04:10) 10.83 (18:30) 1.6 0 0 1.6 0
22-04-2019 20.1 (12:20) 8.4 (00:00) 14.3 9.17 (23:40) 6.94 (23:59) 0 0 0 0 0
21-04-2019 12.5 (17:00) 8.6 (00:00) 10.6 10.28 (12:50) 7.22 (12:50) 0.2 0.2 0 0 0
20-04-2019 12.6 (15:10) 8.1 (00:00) 10.4 16.67 (01:10) 10.56 (01:40) 0 0 0 0 0
19-04-2019 12.9 (13:20) 8.1 (00:00) 10.5 14.17 (21:50) 10 (21:40) 0 0 0 0 0
18-04-2019 12.6 (13:40) 8.3 (00:00) 10.5 14.17 (00:50) 9.72 (00:50) 0.2 0.2 0 0 0
17-04-2019 12.2 (10:40) 8.7 (00:00) 10.4 14.17 (05:30) 10.83 (00:20) 2 0 1.4 0.6 0
16-04-2019 17.1 (15:40) 6.3 (00:00) 11.7 15.56 (22:00) 11.11 (22:10) 0.2 0 0.2 0 0
15-04-2019 16.5 (13:50) 8.5 (00:00) 12.5 9.17 (00:10) 6.94 (06:50) 0 0 0 0 0
14-04-2019 19.3 (15:00) 4 (00:00) 11.6 11.67 (22:40) 8.89 (22:40) 0 0 0 0 0
13-04-2019 15 (18:50) 8.2 (00:00) 11.6 9.17 (05:40) 5.56 (08:40) 0 0 0 0 0
12-04-2019 13 (15:10) 7.3 (00:00) 10.2 11.39 (09:30) 5.83 (07:40) 0 0 0 0 0
11-04-2019 12.3 (14:20) 7.7 (00:00) 10 11.67 (18:20) 7.78 (18:40) 0 0 0 0 0
10-04-2019 12.3 (12:50) 7.7 (00:00) 10 10.83 (19:20) 6.67 (20:00) 0 0 0 0 0
09-04-2019 13.5 (14:20) 7.6 (00:00) 10.5 7.22 (21:20) 4.17 (19:30) 1.8 0 0 0 1.8
08-04-2019 10.9 (17:00) 7.6 (00:00) 9.2 7.22 (19:20) 5.28 (19:00) 0.4 0 0.4 0 0
07-04-2019 13.1 (16:20) 7.2 (00:00) 10.2 8.61 (00:20) 6.11 (00:10) 0 0 0 0 0
06-04-2019 11.4 (14:40) 7.4 (00:00) 9.4 14.44 (02:40) 10.28 (02:40) 0.2 0.2 0 0 0
05-04-2019 11.1 (15:40) 7.5 (00:00) 9.3 15.28 (23:30) 10 (21:20) 1.4 1.2 0.2 0 0
04-04-2019 11.8 (15:20) 7.5 (00:00) 9.7 15 (11:00) 11.11 (10:50) 12.2 6 1.8 1.4 3
03-04-2019 11.2 (13:00) 7 (05:20) 9.1 15 (22:40) 10.28 (22:40) 15.4 7.4 2.6 1.2 4.2
02-04-2019 10.3 (14:40) 6.8 (00:00) 8.6 8.33 (05:20) 5.28 (15:10) 26 11.8 10 2 2.2
01-04-2019 12.6 (17:00) 6 (00:00) 9.3 6.67 (00:20) 5 (01:40) 12.8 0 0 0.4 12.4
31-03-2019 11.4 (13:40) 8 (00:00) 9.7 13.33 (09:30) 8.06 (10:20) 0.6 0.2 0.4 0 0
30-03-2019 12.2 (13:30) 5.7 (00:00) 8.9 10.56 (06:50) 8.06 (06:50) 6.4 3.6 2.8 0 0
29-03-2019 12 (09:50) 3.7 (00:00) 7.9 7.5 (18:10) 5.28 (14:20) 13.6 0.2 0 13.2 0.2
28-03-2019 12 (09:20) 4.8 (00:00) 8.4 5.83 (10:50) 3.61 (18:00) 4.6 0 1 3.6 0
27-03-2019 13.5 (11:20) 7.3 (00:00) 10.4 11.11 (01:50) 6.67 (01:40) 13.8 0 0 5.8 8

Gráficas

Temp. máximas Temp. mínimas Temp. medias Precipitaciones Rachas de viento máximas Velocidades máximas media en intervalos de 10 minutos

Datos horarios

Fecha y hora oficial Temperatura (ºC) Velocidad del viento (km/h) Dirección del viento Racha (km/h) Dirección de racha Precipitación (mm) Presión (hPa) Tendencia (hPa) Humedad (%)
2019-04-25 23:00:00 9.8 10 Oeste 31 Noroeste 0 -- -- 100
2019-04-25 22:00:00 9.6 10 Oeste 33 Noroeste 0 -- -- 100
2019-04-25 21:00:00 9.7 17 Noroeste 28 Noroeste 0 -- -- 98
2019-04-25 20:00:00 10.3 12 Noroeste 33 Noroeste 0 -- -- 93
2019-04-25 19:00:00 10.9 22 Noroeste 31 Noroeste 0 -- -- 90
2019-04-25 18:00:00 12.6 19 Noroeste 29 Noroeste 0 -- -- 78
2019-04-25 17:00:00 13 17 Noroeste 28 Noroeste 0 -- -- 70
2019-04-25 16:00:00 13.7 14 Noroeste 27 Noroeste 0 -- -- 75
2019-04-25 15:00:00 13.6 14 Noroeste 23 Noroeste 0 -- -- 70
2019-04-25 14:00:00 15.1 12 Noroeste 19 Oeste 0 -- -- 64
2019-04-25 13:00:00 14.3 10 Noroeste 18 Norte 0 -- -- 63
2019-04-25 12:00:00 14.5 9 Noroeste 16 Noroeste 0 -- -- 66
2019-04-25 11:00:00 17 5 Nordeste 15 Noroeste 0 -- -- 29
2019-04-25 10:00:00 13.8 10 Noroeste 15 Noroeste 0 -- -- 39
2019-04-25 09:00:00 9 10 Noroeste 19 Noroeste 0 -- -- 100
2019-04-25 08:00:00 7.9 15 Noroeste 21 Noroeste 0 -- -- 100
2019-04-25 07:00:00 7 14 Noroeste 19 Noroeste 0 -- -- 97
2019-04-25 06:00:00 6.2 13 Noroeste 18 Noroeste 0 -- -- 98
2019-04-25 05:00:00 6.8 15 Noroeste 19 Oeste 0 -- -- 64
2019-04-25 04:00:00 9.1 14 Oeste 19 Noroeste 0 -- -- 52
2019-04-25 03:00:00 9.5 13 Oeste 15 Noroeste 0 -- -- 64
2019-04-25 02:00:00 9.2 10 Noroeste 15 Oeste 0 -- -- 64
2019-04-25 01:00:00 9.3 14 Oeste 19 Oeste 0 -- -- 34
2019-04-25 00:00:00 9.1 16 Oeste 19 Oeste 0 -- -- 34
2019-04-24 23:00:00 8.7 14 Oeste 17 Oeste 0 -- -- 42
2019-04-24 22:00:00 9 12 Oeste 15 Oeste 0 -- -- 36
2019-04-24 21:00:00 8.4 12 Noroeste 21 Noroeste 0 -- -- 96
2019-04-24 20:00:00 10.5 14 Noroeste 18 Noroeste 0 -- -- 93
2019-04-24 19:00:00 11.9 11 Noroeste 21 Noroeste 0 -- -- 86
2019-04-24 18:00:00 13 15 Noroeste 23 Noroeste 0 -- -- 77
2019-04-24 17:00:00 13.8 10 Noroeste 19 Noroeste 0 -- -- 76
2019-04-24 16:00:00 16.1 5 Noroeste 19 Noroeste 0 -- -- 75
2019-04-24 15:00:00 14.6 9 Nordeste 20 Este 0 -- -- 76
2019-04-24 14:00:00 14.9 12 Este 20 Sudeste 0 -- -- 75
2019-04-24 13:00:00 14 9 Nordeste 17 Nordeste 0 -- -- 82
2019-04-24 12:00:00 13.7 9 Noroeste 16 Norte 0 -- -- 81
2019-04-24 11:00:00 14.8 5 Noroeste 15 Noroeste 0 -- -- 62
2019-04-24 10:00:00 13.1 8 Noroeste 22 Noroeste 0 -- -- 82
2019-04-24 09:00:00 11.2 16 Noroeste 26 Oeste 0.2 -- -- 96
2019-04-24 08:00:00 7.8 19 Oeste 25 Noroeste 0 -- -- 100
2019-04-24 07:00:00 8.2 11 Oeste 21 Noroeste 0 -- -- 100
2019-04-24 06:00:00 8.3 17 Noroeste 27 Noroeste 0 -- -- 100
2019-04-24 05:00:00 8.1 21 Noroeste 26 Noroeste 0 -- -- 100
2019-04-24 04:00:00 8.4 17 Noroeste 31 Noroeste 0 -- -- 100
2019-04-24 03:00:00 8.6 24 Noroeste 35 Noroeste 0 -- -- 100
2019-04-24 02:00:00 9.3 25 Noroeste 39 Oeste 0 -- -- 100
2019-04-24 01:00:00 9.3 26 Noroeste 41 Noroeste 0 -- -- 100
2019-04-24 00:00:00 9 28 Noroeste 41 Oeste 0 -- -- 100
2019-04-23 23:00:00 8.5 32 Noroeste 42 Oeste 0 -- -- 100
2019-04-23 22:00:00 8.4 29 Oeste 43 Oeste 0 -- -- 100
2019-04-23 21:00:00 8.4 29 Noroeste 39 Oeste 0 -- -- 98
2019-04-23 20:00:00 8.9 24 Oeste 48 Oeste 0 -- -- 100
2019-04-23 19:00:00 9.6 38 Oeste 49 Oeste 0 -- -- 100
2019-04-23 18:00:00 10 35 Noroeste 47 Noroeste 0 -- -- 100
2019-04-23 17:00:00 10.7 35 Noroeste 48 Noroeste 0 -- -- 100
2019-04-23 16:00:00 10.9 34 Noroeste 49 Noroeste 0.8 -- -- 100
2019-04-23 15:00:00 12.3 30 Noroeste 48 Oeste 0.4 -- -- 99
2019-04-23 14:00:00 11.9 32 Noroeste 43 Oeste 0.4 -- -- 100
2019-04-23 13:00:00 11.3 31 Oeste 45 Oeste 0 -- -- 100
2019-04-23 12:00:00 11.4 31 Oeste 44 Oeste 0 -- -- 100
2019-04-23 11:00:00 10.5 30 Noroeste 43 Noroeste 0 -- -- 100
2019-04-23 10:00:00 9.8 25 Oeste 41 Oeste 0 -- -- 100
2019-04-23 09:00:00 9.9 34 Oeste 44 Oeste 0 -- -- 100
2019-04-23 08:00:00 9.3 31 Oeste 49 Oeste 0 -- -- 100
2019-04-23 07:00:00 9.3 34 Oeste 45 Oeste 0 -- -- 100
2019-04-23 06:00:00 9.6 31 Oeste 43 Oeste 0 -- -- 100
2019-04-23 05:00:00 9.8 31 Oeste 56 Oeste 0 -- -- 100
2019-04-23 04:00:00 9.7 37 Oeste 49 Oeste 0 -- -- 100
2019-04-23 03:00:00 9.5 31 Oeste 44 Oeste 0 -- -- 100
2019-04-23 02:00:00 9.7 32 Oeste 44 Oeste 0 -- -- 95
2019-04-23 01:00:00 9.6 26 Oeste 42 Oeste 0 -- -- 93
2019-04-23 00:00:00 9.6 25 Noroeste 33 Noroeste 0 -- -- 98
2019-04-22 23:00:00 12.9 21 Oeste 32 Oeste 0 -- -- 44
2019-04-22 22:00:00 12.8 19 Noroeste 27 Noroeste 0 -- -- 47
2019-04-22 21:00:00 12.1 21 Oeste 29 Oeste 0 -- -- 53
2019-04-22 20:00:00 12.3 21 Noroeste 33 Oeste 0 -- -- 80
2019-04-22 19:00:00 12.1 23 Oeste 31 Noroeste 0 -- -- 91
2019-04-22 18:00:00 17.1 20 Noroeste 28 Oeste 0 -- -- 63
2019-04-22 17:00:00 18.6 23 Noroeste 32 Noroeste 0 -- -- 35
2019-04-22 16:00:00 19.7 18 Noroeste 24 Noroeste 0 -- -- 38
2019-04-22 15:00:00 15.8 19 Noroeste 25 Noroeste 0 -- -- 74
2019-04-22 14:00:00 19.3 10 Noroeste 27 Noroeste 0 -- -- 55
2019-04-22 13:00:00 18.9 15 Noroeste 23 Noroeste 0 -- -- 34
2019-04-22 12:00:00 18.7 12 Noroeste 22 Noroeste 0 -- -- 33
2019-04-22 11:00:00 17.6 14 Noroeste 22 Noroeste 0 -- -- 39
2019-04-22 10:00:00 16.3 10 Noroeste 19 Noroeste 0 -- -- 47
2019-04-22 09:00:00 15.3 11 Noroeste 17 Noroeste 0 -- -- 44
2019-04-22 08:00:00 11 10 Noroeste 13 Noroeste 0 -- -- 54
2019-04-22 07:00:00 9.7 9 Oeste 14 Noroeste 0 -- -- 61
2019-04-22 06:00:00 9.3 11 Noroeste 14 Noroeste 0 -- -- 63
2019-04-22 05:00:00 9.1 11 Noroeste 16 Noroeste 0 -- -- 73
2019-04-22 04:00:00 9.5 9 Noroeste 19 Noroeste 0 -- -- 80
2019-04-22 03:00:00 9.7 10 Noroeste 17 Noroeste 0 -- -- 81
2019-04-22 02:00:00 9.4 13 Noroeste 21 Norte 0 -- -- 100
2019-04-22 01:00:00 9.2 13 Noroeste 22 Noroeste 0 -- -- 100
2019-04-22 00:00:00 9.5 14 Noroeste 24 Noroeste 0 -- -- 100
2019-04-21 23:00:00 10.5 18 Noroeste 29 Noroeste 0 -- -- 100
2019-04-21 22:00:00 10 16 Noroeste 26 Noroeste 0 -- -- 100
2019-04-21 21:00:00 10.4 18 Noroeste 29 Noroeste 0 -- -- 100
2019-04-21 20:00:00 10.6 21 Noroeste 30 Noroeste 0 -- -- 99
2019-04-21 19:00:00 11.2 19 Noroeste 27 Noroeste 0 -- -- 96
2019-04-21 18:00:00 11.2 21 Noroeste 32 Noroeste 0 -- -- 91
2019-04-21 17:00:00 12.5 23 Noroeste 36 Noroeste 0 -- -- 87
2019-04-21 16:00:00 11.6 17 Noroeste 36 Noroeste 0 -- -- 88
2019-04-21 15:00:00 12.2 15 Noroeste 28 Noroeste 0 -- -- 88
2019-04-21 14:00:00 11.7 17 Noroeste 34 Noroeste 0 -- -- 88
2019-04-21 13:00:00 11.6 24 Noroeste 37 Noroeste 0 -- -- 86
2019-04-21 12:00:00 10.9 21 Noroeste 35 Noroeste 0 -- -- 90
2019-04-21 11:00:00 10 7 Noroeste 28 Nordeste 0 -- -- 100
2019-04-21 10:00:00 10 13 Nordeste 31 Norte 0 -- -- 99
2019-04-21 09:00:00 9.5 10 Nordeste 31 Noroeste 0 -- -- 95
2019-04-21 08:00:00 8.8 19 Noroeste 35 Noroeste 0 -- -- 99
2019-04-21 07:00:00 8.9 11 Norte 35 Nordeste 0 -- -- 99
2019-04-21 06:00:00 8.8 13 Nordeste 30 Nordeste 0 -- -- 100
2019-04-21 05:00:00 8.8 14 Nordeste 33 Nordeste 0 -- -- 100
2019-04-21 04:00:00 8.8 17 Nordeste 36 Norte 0.2 -- -- 100
2019-04-21 03:00:00 9.2 14 Nordeste 37 Nordeste 0 -- -- 100
2019-04-21 02:00:00 8.8 15 Norte 34 Nordeste 0 -- -- 99
2019-04-21 01:00:00 8.9 11 Nordeste 29 Norte 0 -- -- 100
2019-04-21 00:00:00 9.1 13 Nordeste 34 Norte 0 -- -- 99
2019-04-20 23:00:00 9.3 12 Nordeste 29 Norte 0 -- -- 100
2019-04-20 22:00:00 9.2 6 Oeste 28 Noroeste 0 -- -- 100
2019-04-20 21:00:00 9.1 9 Nordeste 24 Norte 0 -- -- 99
2019-04-20 20:00:00 9.3 8 Noroeste 23 Nordeste 0 -- -- 95
2019-04-20 19:00:00 10.1 10 Nordeste 26 Noroeste 0 -- -- 86
2019-04-20 18:00:00 11.4 8 Norte 28 Noroeste 0 -- -- 86
2019-04-20 17:00:00 12 10 Noroeste 31 Nordeste 0 -- -- 80
2019-04-20 16:00:00 12.4 13 Nordeste 30 Norte 0 -- -- 80
2019-04-20 15:00:00 12.2 14 Nordeste 38 Norte 0 -- -- 78
2019-04-20 14:00:00 11.2 12 Nordeste 28 Nordeste 0 -- -- 87
2019-04-20 13:00:00 10.2 13 Nordeste 26 Nordeste 0 -- -- 99
2019-04-20 12:00:00 9.3 12 Nordeste 24 Nordeste 0 -- -- 100
2019-04-20 11:00:00 9.5 6 Nordeste 28 Nordeste 0 -- -- 100
2019-04-20 10:00:00 8.9 16 Noroeste 32 Noroeste 0 -- -- 100
2019-04-20 09:00:00 8.2 22 Noroeste 40 Noroeste 0 -- -- 100
2019-04-20 08:00:00 8.6 31 Noroeste 45 Noroeste 0 -- -- 100
2019-04-20 07:00:00 8.7 17 Noroeste 44 Noroeste 0 -- -- 100
2019-04-20 06:00:00 8.7 27 Noroeste 40 Noroeste 0 -- -- 100
2019-04-20 05:00:00 9 28 Noroeste 50 Noroeste 0 -- -- 100
2019-04-20 04:00:00 9.4 35 Noroeste 48 Noroeste 0 -- -- 100
2019-04-20 03:00:00 8.6 27 Noroeste 42 Noroeste 0 -- -- 100
2019-04-20 02:00:00 9 35 Noroeste 60 Noroeste 0 -- -- 100
2019-04-20 01:00:00 8.9 33 Noroeste 50 Noroeste 0 -- -- 100
2019-04-20 00:00:00 8.6 31 Noroeste 48 Noroeste 0 -- -- 100
2019-04-19 23:00:00 8.4 29 Noroeste 44 Noroeste 0 -- -- 100
2019-04-19 22:00:00 8.8 35 Noroeste 51 Noroeste 0 -- -- 100
2019-04-19 21:00:00 8.6 24 Noroeste 45 Noroeste 0 -- -- 100
2019-04-19 20:00:00 8.8 27 Noroeste 45 Noroeste 0 -- -- 98
2019-04-19 19:00:00 9.4 28 Noroeste 40 Noroeste 0 -- -- 95
2019-04-19 18:00:00 10.1 24 Noroeste 40 Noroeste 0 -- -- 91
2019-04-19 17:00:00 11.4 12 Norte 32 Noroeste 0 -- -- 86
2019-04-19 16:00:00 12.4 10 Noroeste 39 Oeste 0 -- -- 83
2019-04-19 15:00:00 12.2 16 Noroeste 33 Noroeste 0 -- -- 87
2019-04-19 14:00:00 12.2 12 Nordeste 31 Nordeste 0 -- -- 84
2019-04-19 13:00:00 12.3 19 Nordeste 33 Nordeste 0 -- -- 80
2019-04-19 12:00:00 11.3 9 Oeste 35 Nordeste 0 -- -- 96
2019-04-19 11:00:00 9.9 10 Nordeste 29 Nordeste 0 -- -- 99
2019-04-19 10:00:00 9.2 13 Oeste 35 Noroeste 0 -- -- 100
2019-04-19 09:00:00 8.3 19 Noroeste 40 Noroeste 0 -- -- 100
2019-04-19 08:00:00 9.1 19 Oeste 41 Noroeste 0 -- -- 100
2019-04-19 07:00:00 8.2 19 Noroeste 47 Noroeste 0 -- -- 100
2019-04-19 06:00:00 8.5 22 Noroeste 45 Noroeste 0 -- -- 100
2019-04-19 05:00:00 8.8 14 Oeste 37 Oeste 0 -- -- 100
2019-04-19 04:00:00 8.6 19 Noroeste 45 Noroeste 0 -- -- 100
2019-04-19 03:00:00 8.7 27 Noroeste 50 Norte 0 -- -- 100
2019-04-19 02:00:00 8.4 26 Noroeste 47 Noroeste 0 -- -- 100
2019-04-19 01:00:00 9.1 10 Nordeste 34 Noroeste 0 -- -- 100
2019-04-19 00:00:00 8.7 10 Oeste 35 Noroeste 0 -- -- 100
2019-04-18 23:00:00 8.9 9 Nordeste 36 Norte 0 -- -- 100
2019-04-18 22:00:00 8.9 10 Nordeste 33 Noroeste 0 -- -- 100
2019-04-18 21:00:00 9.3 10 Noroeste 36 Noroeste 0 -- -- 100
2019-04-18 20:00:00 9.3 20 Noroeste 36 Noroeste 0 -- -- 98
2019-04-18 19:00:00 9.8 15 Noroeste 27 Norte 0 -- -- 94
2019-04-18 18:00:00 10.3 13 Nordeste 30 Nordeste 0 -- -- 92
2019-04-18 17:00:00 11.8 9 Nordeste 33 Noroeste 0 -- -- 89
2019-04-18 16:00:00 11.4 15 Noroeste 46 Noroeste 0 -- -- 85
2019-04-18 15:00:00 11.3 24 Noroeste 42 Noroeste 0 -- -- 89
2019-04-18 14:00:00 12.4 10 Nordeste 36 Noroeste 0 -- -- 82
2019-04-18 13:00:00 11.4 18 Noroeste 43 Noroeste 0 -- -- 87
2019-04-18 12:00:00 10.8 26 Noroeste 45 Noroeste 0 -- -- 91
2019-04-18 11:00:00 10.4 16 Oeste 36 Noroeste 0 -- -- 97
2019-04-18 10:00:00 9.1 10 Nordeste 33 Norte 0 -- -- 100
2019-04-18 09:00:00 8.7 15 Noroeste 42 Noroeste 0 -- -- 100
2019-04-18 08:00:00 8.3 9 Nordeste 33 Oeste 0 -- -- 100
2019-04-18 07:00:00 8.6 21 Noroeste 39 Noroeste 0 -- -- 100
2019-04-18 06:00:00 8.9 14 Noroeste 41 Noroeste 0 -- -- 100
2019-04-18 05:00:00 8.9 22 Noroeste 35 Noroeste 0 -- -- 100
2019-04-18 04:00:00 8.8 6 Oeste 31 Nordeste 0 -- -- 100
2019-04-18 03:00:00 9 11 Noroeste 29 Noroeste 0 -- -- 100
2019-04-18 02:00:00 9.4 24 Noroeste 46 Noroeste 0 -- -- 100
2019-04-18 01:00:00 9.3 32 Noroeste 51 Noroeste 0.2 -- -- 98
2019-04-18 00:00:00 9.2 32 Noroeste 46 Noroeste 0 -- -- 99
2019-04-17 23:00:00 9.1 31 Noroeste 48 Noroeste 0 -- -- 96
2019-04-17 22:00:00 9.2 31 Noroeste 45 Noroeste 0 -- -- 98
2019-04-17 21:00:00 9.2 28 Noroeste 40 Noroeste 0 -- -- 97
2019-04-17 20:00:00 9.7 28 Noroeste 40 Oeste 0 -- -- 96
2019-04-17 19:00:00 10 30 Noroeste 47 Noroeste 0 -- -- 93
2019-04-17 18:00:00 10.1 33 Noroeste 45 Noroeste 0 -- -- 98
2019-04-17 17:00:00 9.7 32 Noroeste 42 Noroeste 0 -- -- 100
2019-04-17 16:00:00 11 26 Noroeste 40 Oeste 0 -- -- 100
2019-04-17 15:00:00 11.3 23 Noroeste 34 Oeste 0 -- -- 100
2019-04-17 14:00:00 11.2 24 Noroeste 38 Noroeste 0.4 -- -- 100
2019-04-17 13:00:00 11.2 29 Noroeste 42 Oeste 0.2 -- -- 100
2019-04-17 12:00:00 10.9 28 Noroeste 43 Noroeste 0.6 -- -- 100
2019-04-17 11:00:00 11.5 28 Noroeste 42 Oeste 0.6 -- -- 100
2019-04-17 10:00:00 11.5 28 Oeste 50 Oeste 0.2 -- -- 100
2019-04-17 09:00:00 11.3 38 Oeste 51 Oeste 0 -- -- 100
2019-04-17 08:00:00 10.3 32 Oeste 47 Oeste 0 -- -- 99
2019-04-17 07:00:00 9.6 32 Oeste 45 Oeste 0 -- -- 100
2019-04-17 06:00:00 9.7 34 Oeste 51 Oeste 0 -- -- 100
2019-04-17 05:00:00 9.8 31 Oeste 45 Oeste 0 -- -- 98
2019-04-17 04:00:00 9.6 30 Oeste 46 Oeste 0 -- -- 92
2019-04-17 03:00:00 8.7 35 Oeste 50 Oeste 0 -- -- 91
2019-04-17 02:00:00 9.1 32 Oeste 43 Oeste 0 -- -- 84
2019-04-17 01:00:00 9.4 32 Oeste 50 Oeste 0 -- -- 69
2019-04-17 00:00:00 8.9 35 Oeste 46 Oeste 0 -- -- 93
2019-04-16 23:00:00 8.5 28 Oeste 54 Oeste 0 -- -- 100
2019-04-16 22:00:00 9.9 39 Oeste 56 Oeste 0 -- -- 100
2019-04-16 21:00:00 10.5 35 Oeste 51 Oeste 0 -- -- 100
2019-04-16 20:00:00 11 30 Oeste 46 Oeste 0 -- -- 99
2019-04-16 19:00:00 12.6 23 Oeste 35 Oeste 0 -- -- 91
2019-04-16 18:00:00 13.9 9 Oeste 26 Oeste 0 -- -- 84
2019-04-16 17:00:00 15.9 17 Oeste 30 Oeste 0 -- -- 70
2019-04-16 16:00:00 16 13 Sudoeste 25 Oeste 0 -- -- 72
2019-04-16 15:00:00 15.6 15 Oeste 23 Oeste 0 -- -- 79
2019-04-16 14:00:00 15.5 12 Oeste 22 Oeste 0 -- -- 93
2019-04-16 13:00:00 12.8 6 Sudoeste 15 Sudeste 0 -- -- 99
2019-04-16 12:00:00 13.8 9 Este 16 Este 0 -- -- 91
2019-04-16 11:00:00 13.1 6 Sudeste 19 Sur 0 -- -- 94
2019-04-16 10:00:00 13.4 12 Oeste 22 Oeste 0 -- -- 96
2019-04-16 09:00:00 10.8 6 Noroeste 19 Oeste 0 -- -- 100
2019-04-16 08:00:00 9.3 17 Oeste 28 Oeste 0.2 -- -- 100
2019-04-16 07:00:00 8.9 17 Oeste 21 Oeste 0 -- -- 100
2019-04-16 06:00:00 8.8 10 Noroeste 23 Noroeste 0 -- -- 100
2019-04-16 05:00:00 8.7 14 Noroeste 18 Noroeste 0 -- -- 100
2019-04-16 04:00:00 9.1 13 Noroeste 15 Noroeste 0 -- -- 100
2019-04-16 03:00:00 9.6 10 Noroeste 18 Noroeste 0 -- -- 100
2019-04-16 02:00:00 7.3 8 Oeste 19 Noroeste 0 -- -- 99
2019-04-16 01:00:00 6.4 9 Sudoeste 16 Noroeste 0 -- -- 100
2019-04-16 00:00:00 9.6 9 Noroeste 13 Noroeste 0 -- -- 100
2019-04-15 23:00:00 10.2 6 Noroeste 14 Noroeste 0 -- -- 100
2019-04-15 22:00:00 9.7 6 Noroeste 15 Noroeste 0 -- -- 100
2019-04-15 21:00:00 10.6 4 Noroeste 13 Noroeste 0 -- -- 99
2019-04-15 20:00:00 11.9 8 Noroeste 14 Noroeste 0 -- -- 97
2019-04-15 19:00:00 13 9 Noroeste 21 Oeste 0 -- -- 92
2019-04-15 18:00:00 14.2 10 Noroeste 16 Noroeste 0 -- -- 90
2019-04-15 17:00:00 14.7 5 Sudeste 23 Sudoeste 0 -- -- 94
2019-04-15 16:00:00 12.6 10 Sur 19 Sudeste 0 -- -- 99
2019-04-15 15:00:00 12.1 12 Sudeste 28 Este 0 -- -- 98
2019-04-15 14:00:00 16.1 18 Este 27 Este 0 -- -- 80
2019-04-15 13:00:00 14.6 8 Norte 25 Noroeste 0 -- -- 87
2019-04-15 12:00:00 13.7 10 Noroeste 23 Noroeste 0 -- -- 86
2019-04-15 11:00:00 12.6 13 Noroeste 23 Noroeste 0 -- -- 93
2019-04-15 10:00:00 12.1 13 Noroeste 22 Noroeste 0 -- -- 96
2019-04-15 09:00:00 10.6 14 Noroeste 25 Noroeste 0 -- -- 100
2019-04-15 08:00:00 9.7 15 Noroeste 28 Noroeste 0 -- -- 100
2019-04-15 07:00:00 10.3 24 Noroeste 32 Noroeste 0 -- -- 100
2019-04-15 06:00:00 10.1 20 Noroeste 31 Noroeste 0 -- -- 100
2019-04-15 05:00:00 8.8 17 Noroeste 26 Noroeste 0 -- -- 100
2019-04-15 04:00:00 8.7 13 Noroeste 24 Noroeste 0 -- -- 100
2019-04-15 03:00:00 9.3 18 Noroeste 31 Noroeste 0 -- -- 99
2019-04-15 02:00:00 8.9 20 Oeste 31 Noroeste 0 -- -- 95
2019-04-15 01:00:00 9.2 23 Oeste 33 Oeste 0 -- -- 88
2019-04-15 00:00:00 9.5 26 Oeste 39 Noroeste 0 -- -- 95
2019-04-14 23:00:00 11.8 29 Noroeste 42 Oeste 0 -- -- 47
2019-04-14 22:00:00 12 26 Oeste 37 Oeste 0 -- -- 41
2019-04-14 21:00:00 13.3 28 Oeste 39 Oeste 0 -- -- 32
2019-04-14 20:00:00 11.4 21 Oeste 36 Oeste 0 -- -- 82
2019-04-14 19:00:00 12 24 Oeste 34 Oeste 0 -- -- 86
2019-04-14 18:00:00 16.9 21 Oeste 29 Oeste 0 -- -- 31
2019-04-14 17:00:00 17.4 12 Oeste 34 Oeste 0 -- -- 35
2019-04-14 16:00:00 18.9 14 Oeste 26 Oeste 0 -- -- 32
2019-04-14 15:00:00 19.3 14 Oeste 21 Este 0 -- -- 32
2019-04-14 14:00:00 17.7 7 Este 17 Este 0 -- -- 63
2019-04-14 13:00:00 16.4 9 Este 18 Este 0 -- -- 70
2019-04-14 12:00:00 16.5 9 Este 16 Este 0 -- -- 57
2019-04-14 11:00:00 17.1 9 Este 15 Este 0 -- -- 62
2019-04-14 10:00:00 17.5 6 Este 11 Este 0 -- -- 36
2019-04-14 09:00:00 15.6 4 Sur 9 Sur 0 -- -- 36
2019-04-14 08:00:00 7.9 8 Sudoeste 15 Sudoeste 0 -- -- 49
2019-04-14 07:00:00 7.7 11 Sudoeste 14 Sudoeste 0 -- -- 45
2019-04-14 06:00:00 6.8 11 Sudoeste 13 Sudoeste 0 -- -- 45
2019-04-14 05:00:00 6.5 9 Sur 14 Sudoeste 0 -- -- 58
2019-04-14 04:00:00 4 12 Sudoeste 14 Sudoeste 0 -- -- 100
2019-04-14 03:00:00 8.4 7 Noroeste 15 Noroeste 0 -- -- 100
2019-04-14 02:00:00 9.2 12 Noroeste 19 Noroeste 0 -- -- 100
2019-04-14 01:00:00 9.2 13 Noroeste 20 Noroeste 0 -- -- 100
2019-04-14 00:00:00 9.3 12 Noroeste 19 Noroeste 0 -- -- 100
2019-04-13 23:00:00 9.3 13 Noroeste 18 Noroeste 0 -- -- 100
2019-04-13 22:00:00 8.8 14 Noroeste 17 Noroeste 0 -- -- 96
2019-04-13 21:00:00 9.9 7 Noroeste 11 Noroeste 0 -- -- 64
2019-04-13 20:00:00 14 2 Noroeste 17 Este 0 -- -- 60
2019-04-13 19:00:00 14.5 12 Sudeste 18 Este 0 -- -- 72
2019-04-13 18:00:00 13.7 8 Noroeste 17 Noroeste 0 -- -- 82
2019-04-13 17:00:00 14.1 9 Norte 19 Noroeste 0 -- -- 82
2019-04-13 16:00:00 12.7 12 Noroeste 26 Noroeste 0 -- -- 88
2019-04-13 15:00:00 12.3 11 Noroeste 30 Noroeste 0 -- -- 91
2019-04-13 14:00:00 13.2 12 Noroeste 23 Noroeste 0 -- -- 83
2019-04-13 13:00:00 13.3 12 Noroeste 19 Noroeste 0 -- -- 82
2019-04-13 12:00:00 12.6 7 Norte 24 Noroeste 0 -- -- 97
2019-04-13 11:00:00 10.8 11 Noroeste 27 Oeste 0 -- -- 100
2019-04-13 10:00:00 9.9 11 Noroeste 22 Oeste 0 -- -- 100
2019-04-13 09:00:00 9.1 13 Nordeste 31 Nordeste 0 -- -- 100
2019-04-13 08:00:00 8.7 16 Nordeste 33 Norte 0 -- -- 100
2019-04-13 07:00:00 8.5 12 Norte 26 Noroeste 0 -- -- 100
2019-04-13 06:00:00 8.9 10 Norte 33 Norte 0 -- -- 100
2019-04-13 05:00:00 8.7 13 Nordeste 31 Nordeste 0 -- -- 100
2019-04-13 04:00:00 8.7 13 Nordeste 28 Norte 0 -- -- 100
2019-04-13 03:00:00 8.5 6 Norte 21 Nordeste 0 -- -- 100
2019-04-13 02:00:00 8.5 10 Noroeste 23 Noroeste 0 -- -- 100
2019-04-13 01:00:00 8.3 13 Noroeste 24 Noroeste 0 -- -- 99
2019-04-13 00:00:00 8.4 10 Norte 24 Norte 0 -- -- 95
2019-04-12 23:00:00 7.7 9 Oeste 16 Oeste 0 -- -- 100
2019-04-12 22:00:00 7.6 10 Oeste 24 Noroeste 0 -- -- 99
2019-04-12 21:00:00 8.8 17 Noroeste 29 Noroeste 0 -- -- 99
2019-04-12 20:00:00 9 17 Noroeste 28 Noroeste 0 -- -- 96
2019-04-12 19:00:00 9.3 18 Noroeste 36 Noroeste 0 -- -- 97
2019-04-12 18:00:00 10.5 9 Noroeste 35 Oeste 0 -- -- 93
2019-04-12 17:00:00 10.3 19 Noroeste 30 Noroeste 0 -- -- 90
2019-04-12 16:00:00 11.9 14 Noroeste 27 Noroeste 0 -- -- 87
2019-04-12 15:00:00 12 12 Norte 25 Nordeste 0 -- -- 88
2019-04-12 14:00:00 11.3 15 Nordeste 30 Nordeste 0 -- -- 90
2019-04-12 13:00:00 11.3 15 Nordeste 32 Noroeste 0 -- -- 85
2019-04-12 12:00:00 11.4 7 Sudoeste 28 Noroeste 0 -- -- 87
2019-04-12 11:00:00 11 8 Noroeste 36 Oeste 0 -- -- 88
2019-04-12 10:00:00 9.3 19 Noroeste 41 Noroeste 0 -- -- 97
2019-04-12 09:00:00 8.3 17 Noroeste 33 Noroeste 0 -- -- 100
2019-04-12 08:00:00 7.9 15 Oeste 36 Noroeste 0 -- -- 100
2019-04-12 07:00:00 7.7 18 Noroeste 34 Oeste 0 -- -- 100
2019-04-12 06:00:00 7.5 14 Noroeste 39 Noroeste 0 -- -- 100
2019-04-12 05:00:00 7.5 18 Noroeste 34 Noroeste 0 -- -- 100
2019-04-12 04:00:00 7.8 7 Este 30 Norte 0 -- -- 100
2019-04-12 03:00:00 8 17 Noroeste 33 Noroeste 0 -- -- 100
2019-04-12 02:00:00 8.5 8 Oeste 32 Nordeste 0 -- -- 100
2019-04-12 01:00:00 8.4 15 Nordeste 31 Nordeste 0 -- -- 100
2019-04-12 00:00:00 8.2 8 Sudeste 41 Noroeste 0 -- -- 100
2019-04-11 23:00:00 8.3 17 Noroeste 35 Noroeste 0 -- -- 100
2019-04-11 22:00:00 8.6 17 Noroeste 32 Noroeste 0 -- -- 100
2019-04-11 21:00:00 8.3 17 Noroeste 29 Noroeste 0 -- -- 100
2019-04-11 20:00:00 9 18 Noroeste 33 Noroeste 0 -- -- 98
2019-04-11 19:00:00 9.5 26 Noroeste 42 Noroeste 0 -- -- 96
2019-04-11 18:00:00 10.1 17 Noroeste 32 Noroeste 0 -- -- 90
2019-04-11 17:00:00 11.5 10 Noroeste 31 Oeste 0 -- -- 86
2019-04-11 16:00:00 11.6 9 Nordeste 34 Noroeste 0 -- -- 85
2019-04-11 15:00:00 11.8 15 Noroeste 29 Noroeste 0 -- -- 83
2019-04-11 14:00:00 11.7 9 Nordeste 28 Norte 0 -- -- 87
2019-04-11 13:00:00 11 14 Nordeste 30 Nordeste 0 -- -- 87
2019-04-11 12:00:00 11.2 10 Nordeste 32 Noroeste 0 -- -- 86
2019-04-11 11:00:00 9.7 14 Oeste 33 Noroeste 0 -- -- 93
2019-04-11 10:00:00 8.5 16 Noroeste 32 Noroeste 0 -- -- 100
2019-04-11 09:00:00 8.2 15 Noroeste 38 Noroeste 0 -- -- 100
2019-04-11 08:00:00 8.3 12 Sudeste 42 Norte 0 -- -- 100
2019-04-11 07:00:00 8.1 8 Sur 28 Noroeste 0 -- -- 100
2019-04-11 06:00:00 8.1 7 Sudoeste 33 Noroeste 0 -- -- 100
2019-04-11 05:00:00 8 10 Oeste 26 Noroeste 0 -- -- 100
2019-04-11 04:00:00 8.3 10 Norte 34 Nordeste 0 -- -- 100
2019-04-11 03:00:00 8 8 Sur 30 Oeste 0 -- -- 100
2019-04-11 02:00:00 8.5 9 Nordeste 29 Norte 0 -- -- 100
2019-04-11 01:00:00 8.3 12 Nordeste 33 Nordeste 0 -- -- 100
2019-04-11 00:00:00 8.4 13 Nordeste 32 Nordeste 0 -- -- 100
2019-04-10 23:00:00 8.7 11 Nordeste 30 Nordeste 0 -- -- 100
2019-04-10 22:00:00 8.5 7 Noroeste 39 Nordeste 0 -- -- 99
2019-04-10 21:00:00 8.2 9 Este 39 Noroeste 0 -- -- 99
2019-04-10 20:00:00 8.4 24 Noroeste 39 Noroeste 0 -- -- 96
2019-04-10 19:00:00 9.1 19 Noroeste 39 Noroeste 0 -- -- 96
2019-04-10 18:00:00 9.9 17 Noroeste 36 Noroeste 0 -- -- 93
2019-04-10 17:00:00 11 13 Oeste 33 Oeste 0 -- -- 86
2019-04-10 16:00:00 11.1 10 Noroeste 25 Norte 0 -- -- 89
2019-04-10 15:00:00 11.7 11 Nordeste 24 Norte 0 -- -- 88
2019-04-10 14:00:00 10.5 10 Nordeste 23 Norte 0 -- -- 93
2019-04-10 13:00:00 11.6 9 Nordeste 23 Nordeste 0 -- -- 86
2019-04-10 12:00:00 11.7 13 Nordeste 24 Nordeste 0 -- -- 83
2019-04-10 11:00:00 10.9 13 Nordeste 27 Nordeste 0 -- -- 96
2019-04-10 10:00:00 9.1 13 Nordeste 27 Norte 0 -- -- 100
2019-04-10 09:00:00 8.3 13 Nordeste 23 Nordeste 0 -- -- 100
2019-04-10 08:00:00 8.2 7 Norte 24 Nordeste 0 -- -- 100
2019-04-10 07:00:00 8.5 9 Nordeste 25 Nordeste 0 -- -- 100
2019-04-10 06:00:00 8.3 14 Nordeste 31 Nordeste 0 -- -- 100
2019-04-10 05:00:00 8.3 12 Nordeste 26 Norte 0 -- -- 100
2019-04-10 04:00:00 8.6 11 Nordeste 28 Norte 0 -- -- 100
2019-04-10 03:00:00 8.7 16 Norte 30 Nordeste 0 -- -- 100
2019-04-10 02:00:00 8.6 11 Norte 26 Nordeste 0 -- -- 100
2019-04-10 01:00:00 8.9 13 Norte 28 Norte 0 -- -- 100
2019-04-10 00:00:00 9 11 Nordeste 26 Nordeste 0 -- -- 100
2019-04-09 23:00:00 9.4 11 Nordeste 24 Nordeste 0 -- -- 100
2019-04-09 22:00:00 9.9 8 Nordeste 26 Nordeste 0.2 -- -- 100
2019-04-09 21:00:00 9.9 13 Nordeste 23 Nordeste 0.8 -- -- 100
2019-04-09 20:00:00 10.2 12 Noroeste 24 Noroeste 0.8 -- -- 100
2019-04-09 19:00:00 10.8 8 Noroeste 18 Norte 0 -- -- 97
2019-04-09 18:00:00 12.9 12 Nordeste 20 Nordeste 0 -- -- 82
2019-04-09 17:00:00 12.6 10 Nordeste 23 Nordeste 0 -- -- 83
2019-04-09 16:00:00 11.7 8 Este 21 Este 0 -- -- 95
2019-04-09 15:00:00 13.3 9 Este 23 Este 0 -- -- 82
2019-04-09 14:00:00 13.1 12 Este 24 Este 0 -- -- 82
2019-04-09 13:00:00 13.3 12 Este 22 Este 0 -- -- 79
2019-04-09 12:00:00 11.9 12 Nordeste 25 Este 0 -- -- 84
2019-04-09 11:00:00 11.5 11 Nordeste 26 Nordeste 0 -- -- 88
2019-04-09 10:00:00 11 12 Nordeste 20 Nordeste 0 -- -- 90
2019-04-09 09:00:00 10.4 4 Noroeste 9 Noroeste 0 -- -- 97
2019-04-09 08:00:00 7.8 4 Noroeste 11 Noroeste 0 -- -- 100
2019-04-09 07:00:00 7.9 5 Noroeste 19 Noroeste 0 -- -- 100
2019-04-09 06:00:00 8.2 3 Norte 13 Noroeste 0 -- -- 100
2019-04-09 05:00:00 8 3 Nordeste 9 Norte 0 -- -- 100
2019-04-09 04:00:00 7.9 2 Oeste 12 Noroeste 0 -- -- 100
2019-04-09 03:00:00 7.8 9 Noroeste 17 Noroeste 0 -- -- 100
2019-04-09 02:00:00 8 12 Noroeste 22 Noroeste 0 -- -- 100
2019-04-09 01:00:00 7.9 12 Noroeste 21 Noroeste 0 -- -- 100
2019-04-09 00:00:00 8.3 15 Noroeste 24 Noroeste 0 -- -- 100
2019-04-08 23:00:00 8.7 15 Noroeste 22 Noroeste 0 -- -- 99
2019-04-08 22:00:00 8.5 14 Noroeste 22 Noroeste 0 -- -- 99
2019-04-08 21:00:00 8.7 15 Noroeste 23 Noroeste 0 -- -- 99
2019-04-08 20:00:00 9.1 17 Noroeste 26 Noroeste 0 -- -- 99
2019-04-08 19:00:00 9.6 19 Noroeste 26 Noroeste 0 -- -- 98
2019-04-08 18:00:00 10.5 15 Noroeste 26 Noroeste 0 -- -- 95
2019-04-08 17:00:00 10.9 9 Noroeste 21 Noroeste 0 -- -- 92
2019-04-08 16:00:00 10.4 13 Noroeste 21 Noroeste 0 -- -- 99
2019-04-08 15:00:00 10.5 8 Nordeste 22 Noroeste 0 -- -- 100
2019-04-08 14:00:00 10.6 6 Noroeste 18 Noroeste 0 -- -- 100
2019-04-08 13:00:00 9.9 9 Noroeste 21 Noroeste 0 -- -- 100
2019-04-08 12:00:00 9.7 5 Nordeste 16 Oeste 0 -- -- 100
2019-04-08 11:00:00 9.4 12 Noroeste 20 Oeste 0 -- -- 100
2019-04-08 10:00:00 9.5 8 Noroeste 21 Noroeste 0.2 -- -- 100
2019-04-08 09:00:00 9.3 10 Noroeste 22 Noroeste 0 -- -- 100
2019-04-08 08:00:00 8.9 12 Noroeste 24 Noroeste 0 -- -- 100
2019-04-08 07:00:00 9 9 Noroeste 19 Noroeste 0.2 -- -- 100
2019-04-08 06:00:00 9 10 Noroeste 18 Noroeste 0 -- -- 100
2019-04-08 05:00:00 9 8 Oeste 16 Oeste 0 -- -- 100
2019-04-08 04:00:00 8.8 11 Noroeste 18 Oeste 0 -- -- 100
2019-04-08 03:00:00 8.4 12 Noroeste 17 Noroeste 0 -- -- 100
2019-04-08 02:00:00 9 10 Noroeste 19 Oeste 0 -- -- 100
2019-04-08 01:00:00 9 5 Oeste 14 Noroeste 0 -- -- 100
2019-04-08 00:00:00 8.6 10 Noroeste 17 Noroeste 0 -- -- 100
2019-04-07 23:00:00 9 13 Noroeste 26 Noroeste 0 -- -- 100
2019-04-07 22:00:00 9.3 17 Noroeste 28 Noroeste 0 -- -- 100
2019-04-07 21:00:00 9.5 13 Oeste 20 Noroeste 0 -- -- 100
2019-04-07 20:00:00 9.5 8 Noroeste 20 Noroeste 0 -- -- 100
2019-04-07 19:00:00 9.9 8 Noroeste 17 Oeste 0 -- -- 95
2019-04-07 18:00:00 12.3 8 Oeste 17 Oeste 0 -- -- 89
2019-04-07 17:00:00 11.5 4 Sudeste 25 Sudeste 0 -- -- 97
2019-04-07 16:00:00 12.5 5 Este 18 Oeste 0 -- -- 91
2019-04-07 15:00:00 11.3 12 Noroeste 16 Noroeste 0 -- -- 97
2019-04-07 14:00:00 10.6 6 Nordeste 15 Nordeste 0 -- -- 95
2019-04-07 13:00:00 11.3 4 Norte 12 Norte 0 -- -- 90
2019-04-07 12:00:00 12 9 Este 16 Este 0 -- -- 86
2019-04-07 11:00:00 11.6 8 Noroeste 15 Oeste 0 -- -- 78
2019-04-07 10:00:00 12.1 6 Noroeste 12 Noroeste 0 -- -- 77
2019-04-07 09:00:00 9.3 4 Oeste 9 Sudeste 0 -- -- 98
2019-04-07 08:00:00 8.1 2 Sudoeste 11 Nordeste 0 -- -- 100
2019-04-07 07:00:00 8.3 3 Nordeste 14 Noroeste 0 -- -- 100
2019-04-07 06:00:00 7.8 8 Oeste 16 Noroeste 0 -- -- 100
2019-04-07 05:00:00 7.9 5 Noroeste 15 Nordeste 0 -- -- 100
2019-04-07 04:00:00 7.9 5 Norte 13 Norte 0 -- -- 100
2019-04-07 03:00:00 7.3 7 Norte 13 Norte 0 -- -- 100
2019-04-07 02:00:00 7.3 5 Norte 22 Noroeste 0 -- -- 100
2019-04-07 01:00:00 7.7 11 Noroeste 31 Noroeste 0 -- -- 100
2019-04-07 00:00:00 8 21 Noroeste 33 Noroeste 0 -- -- 100
2019-04-06 23:00:00 8.4 19 Noroeste 34 Noroeste 0 -- -- 100
2019-04-06 22:00:00 8.1 21 Noroeste 31 Noroeste 0 -- -- 100
2019-04-06 21:00:00 8.3 21 Noroeste 32 Noroeste 0 -- -- 100
2019-04-06 20:00:00 8.3 20 Noroeste 39 Noroeste 0 -- -- 100
2019-04-06 19:00:00 8.9 25 Noroeste 37 Noroeste 0 -- -- 99
2019-04-06 18:00:00 10.3 25 Noroeste 35 Oeste 0 -- -- 90
2019-04-06 17:00:00 10.2 27 Noroeste 40 Noroeste 0 -- -- 90
2019-04-06 16:00:00 9.5 28 Noroeste 37 Noroeste 0 -- -- 94
2019-04-06 15:00:00 10.7 13 Noroeste 33 Noroeste 0 -- -- 84
2019-04-06 14:00:00 10.8 19 Noroeste 38 Noroeste 0 -- -- 85
2019-04-06 13:00:00 10.7 28 Noroeste 43 Noroeste 0 -- -- 83
2019-04-06 12:00:00 10 17 Nordeste 31 Norte 0 -- -- 87
2019-04-06 11:00:00 9.2 20 Noroeste 41 Noroeste 0 -- -- 87
2019-04-06 10:00:00 8.6 28 Noroeste 40 Noroeste 0 -- -- 99
2019-04-06 09:00:00 7.6 27 Noroeste 42 Oeste 0 -- -- 100
2019-04-06 08:00:00 7.8 17 Noroeste 43 Noroeste 0 -- -- 100
2019-04-06 07:00:00 7.6 31 Noroeste 46 Noroeste 0 -- -- 100
2019-04-06 06:00:00 7.4 31 Noroeste 44 Noroeste 0 -- -- 100
2019-04-06 05:00:00 7.7 13 Norte 30 Norte 0 -- -- 100
2019-04-06 04:00:00 7.6 17 Noroeste 49 Noroeste 0 -- -- 100
2019-04-06 03:00:00 7.6 34 Noroeste 52 Noroeste 0 -- -- 100
2019-04-06 02:00:00 8 18 Noroeste 43 Oeste 0.2 -- -- 100
2019-04-06 01:00:00 8 24 Noroeste 45 Noroeste 0 -- -- 100
2019-04-06 00:00:00 8.4 30 Noroeste 55 Noroeste 0 -- -- 100
2019-04-05 23:00:00 7.8 36 Noroeste 48 Oeste 0 -- -- 100
2019-04-05 22:00:00 8 35 Noroeste 52 Noroeste 0 -- -- 100
2019-04-05 21:00:00 8.1 33 Noroeste 49 Noroeste 0 -- -- 100
2019-04-05 20:00:00 8.2 33 Noroeste 49 Noroeste 0 -- -- 100
2019-04-05 19:00:00 9.1 29 Noroeste 45 Noroeste 0 -- -- 100
2019-04-05 18:00:00 9.9 29 Noroeste 43 Noroeste 0 -- -- 97
2019-04-05 17:00:00 10.2 27 Noroeste 45 Noroeste 0 -- -- 96
2019-04-05 16:00:00 10.8 28 Noroeste 41 Noroeste 0 -- -- 93
2019-04-05 15:00:00 10.4 26 Noroeste 43 Noroeste 0 -- -- 92
2019-04-05 14:00:00 10 28 Noroeste 46 Noroeste 0 -- -- 95
2019-04-05 13:00:00 9.4 31 Noroeste 43 Noroeste 0 -- -- 97
2019-04-05 12:00:00 9.4 20 Noroeste 37 Noroeste 0 -- -- 98
2019-04-05 11:00:00 9.2 29 Noroeste 47 Noroeste 0 -- -- 95
2019-04-05 10:00:00 8.4 31 Noroeste 49 Oeste 0 -- -- 100
2019-04-05 09:00:00 7.9 29 Noroeste 45 Noroeste 0 -- -- 100
2019-04-05 08:00:00 7.8 28 Noroeste 51 Oeste 0.2 -- -- 100
2019-04-05 07:00:00 7.6 34 Noroeste 47 Noroeste 0 -- -- 100
2019-04-05 06:00:00 8.1 24 Noroeste 35 Noroeste 0.2 -- -- 100
2019-04-05 05:00:00 7.7 19 Noroeste 46 Oeste 0 -- -- 100
2019-04-05 04:00:00 7.6 31 Noroeste 46 Oeste 0 -- -- 100
2019-04-05 03:00:00 7.8 34 Noroeste 47 Noroeste 0.6 -- -- 100
2019-04-05 02:00:00 8.4 27 Noroeste 39 Noroeste 0.4 -- -- 100
2019-04-05 01:00:00 8.1 24 Noroeste 46 Noroeste 0 -- -- 100
2019-04-05 00:00:00 8.2 29 Noroeste 44 Noroeste 0 -- -- 100
2019-04-04 23:00:00 8.4 32 Noroeste 44 Noroeste 1 -- -- 100
2019-04-04 22:00:00 8.8 28 Noroeste 39 Noroeste 1.8 -- -- 100
2019-04-04 21:00:00 8.3 23 Noroeste 40 Noroeste 0 -- -- 100
2019-04-04 20:00:00 8.6 24 Noroeste 39 Noroeste 0.2 -- -- 100
2019-04-04 19:00:00 8.7 24 Noroeste 42 Noroeste 0 -- -- 100
2019-04-04 18:00:00 8.7 31 Noroeste 40 Noroeste 1.4 -- -- 100
2019-04-04 17:00:00 9.3 12 Nordeste 31 Norte 0 -- -- 98
2019-04-04 16:00:00 10.7 22 Noroeste 43 Noroeste 0 -- -- 92
2019-04-04 15:00:00 11 28 Noroeste 39 Noroeste 0 -- -- 90
2019-04-04 14:00:00 10.2 22 Noroeste 38 Noroeste 0 -- -- 90
2019-04-04 13:00:00 9.7 27 Noroeste 43 Noroeste 0 -- -- 98
2019-04-04 12:00:00 9 13 Nordeste 49 Noroeste 0 -- -- 100
2019-04-04 11:00:00 8.7 35 Noroeste 54 Oeste 1.8 -- -- 100
2019-04-04 10:00:00 8.7 14 Noroeste 39 Noroeste 0 -- -- 100
2019-04-04 09:00:00 8.3 33 Noroeste 52 Noroeste 0 -- -- 100
2019-04-04 08:00:00 8 30 Noroeste 49 Noroeste 0 -- -- 100
2019-04-04 07:00:00 8 28 Noroeste 46 Noroeste 0 -- -- 100
2019-04-04 06:00:00 8.5 24 Noroeste 47 Oeste 0.4 -- -- 100
2019-04-04 05:00:00 7.6 31 Noroeste 49 Oeste 0 -- -- 100
2019-04-04 04:00:00 7.9 24 Noroeste 41 Noroeste 2.2 -- -- 100
2019-04-04 03:00:00 7.5 33 Oeste 51 Oeste 0.2 -- -- 100
2019-04-04 02:00:00 7.8 27 Oeste 50 Oeste 2.2 -- -- 100
2019-04-04 01:00:00 8 27 Noroeste 46 Oeste 1 -- -- 100
2019-04-04 00:00:00 7.8 31 Oeste 49 Oeste 0 -- -- 100
2019-04-03 23:00:00 7.7 33 Oeste 54 Oeste 0 -- -- 100
2019-04-03 22:00:00 8.4 36 Noroeste 52 Noroeste 0 -- -- 100
2019-04-03 21:00:00 8.7 27 Noroeste 52 Oeste 4.2 -- -- 100
2019-04-03 20:00:00 8.7 33 Oeste 52 Oeste 0 -- -- 98
2019-04-03 19:00:00 9 32 Oeste 44 Oeste 0 -- -- 93
2019-04-03 18:00:00 9.1 32 Noroeste 51 Oeste 0 -- -- 93
2019-04-03 17:00:00 9.3 28 Oeste 44 Noroeste 0.8 -- -- 98
2019-04-03 16:00:00 10.6 31 Oeste 42 Noroeste 0.2 -- -- 90
2019-04-03 15:00:00 10.5 26 Oeste 42 Noroeste 0.2 -- -- 88
2019-04-03 14:00:00 11.1 25 Oeste 41 Oeste 0 -- -- 82
2019-04-03 13:00:00 11.2 31 Oeste 40 Oeste 0 -- -- 85
2019-04-03 12:00:00 9.8 26 Oeste 35 Oeste 0 -- -- 90
2019-04-03 11:00:00 9.5 22 Oeste 31 Oeste 0 -- -- 90
2019-04-03 10:00:00 9.6 21 Oeste 31 Oeste 0 -- -- 95
2019-04-03 09:00:00 9.1 15 Oeste 27 Oeste 0.2 -- -- 100
2019-04-03 08:00:00 7 13 Oeste 24 Noroeste 0 -- -- 100
2019-04-03 07:00:00 7.4 19 Oeste 27 Oeste 2.4 -- -- 100
2019-04-03 06:00:00 7.1 19 Oeste 31 Oeste 0 -- -- 100
2019-04-03 05:00:00 7.2 18 Oeste 25 Oeste 0 -- -- 100
2019-04-03 04:00:00 7.5 15 Oeste 26 Oeste 0 -- -- 100
2019-04-03 03:00:00 7.9 17 Noroeste 26 Noroeste 2 -- -- 100
2019-04-03 02:00:00 7.6 13 Noroeste 22 Noroeste 4 -- -- 100
2019-04-03 01:00:00 7.6 10 Oeste 19 Noroeste 1.4 -- -- 100
2019-04-03 00:00:00 7.9 13 Noroeste 26 Noroeste 1.4 -- -- 100
2019-04-02 23:00:00 8.1 14 Oeste 22 Noroeste 0.8 -- -- 100
2019-04-02 22:00:00 7.4 8 Oeste 21 Oeste 0 -- -- 100
2019-04-02 21:00:00 8.1 12 Noroeste 21 Oeste 0 -- -- 100
2019-04-02 20:00:00 8.6 15 Noroeste 21 Noroeste 0 -- -- 100
2019-04-02 19:00:00 8.8 9 Noroeste 23 Noroeste 0 -- -- 100
2019-04-02 18:00:00 8.6 14 Noroeste 24 Noroeste 0.2 -- -- 100
2019-04-02 17:00:00 9.9 15 Noroeste 22 Noroeste 0.2 -- -- 100
2019-04-02 16:00:00 9.8 15 Noroeste 24 Oeste 0 -- -- 100
2019-04-02 15:00:00 10.1 17 Noroeste 23 Noroeste 0.2 -- -- 100
2019-04-02 14:00:00 9.9 13 Noroeste 23 Oeste 1 -- -- 100
2019-04-02 13:00:00 9.9 10 Noroeste 22 Noroeste 0.4 -- -- 100
2019-04-02 12:00:00 9.7 5 Nordeste 16 Nordeste 5.4 -- -- 100
2019-04-02 11:00:00 9.6 10 Nordeste 16 Nordeste 2.8 -- -- 100
2019-04-02 10:00:00 9.5 0 Calma 9 Norte 0.4 -- -- 100
2019-04-02 09:00:00 8.7 4 Nordeste 9 Nordeste 0.2 -- -- 100
2019-04-02 08:00:00 8.3 4 Sudoeste 6 Sudoeste 0.4 -- -- 100
2019-04-02 07:00:00 7.7 2 Sudoeste 9 Oeste 0.8 -- -- 100
2019-04-02 06:00:00 7.3 10 Oeste 30 Noroeste 2.4 -- -- 100
2019-04-02 05:00:00 7.4 19 Noroeste 27 Noroeste 4.6 -- -- 100
2019-04-02 04:00:00 8.1 6 Oeste 23 Nordeste 1 -- -- 100
2019-04-02 03:00:00 8.1 9 Nordeste 18 Nordeste 0.4 -- -- 100
2019-04-02 02:00:00 7.8 4 Nordeste 18 Nordeste 1 -- -- 100
2019-04-02 01:00:00 8.2 7 Nordeste 13 Nordeste 2.4 -- -- 100
2019-04-02 00:00:00 8.2 4 Nordeste 16 Sudeste 1 -- -- 100
2019-04-01 23:00:00 8.4 12 Sur 18 Sudeste 2.4 -- -- 100
2019-04-01 22:00:00 9 3 Sudeste 11 Norte 6.8 -- -- 100
2019-04-01 21:00:00 9.5 9 Este 13 Este 2.2 -- -- 100
2019-04-01 20:00:00 10.3 3 Este 9 Nordeste 0 -- -- 99
2019-04-01 19:00:00 10.6 7 Este 14 Sudeste 0 -- -- 98
2019-04-01 18:00:00 11.6 3 Sudeste 19 Este 0 -- -- 87
2019-04-01 17:00:00 12.6 9 Sudeste 21 Este 0 -- -- 93
2019-04-01 16:00:00 10.8 12 Este 21 Sudeste 0 -- -- 100
2019-04-01 15:00:00 10.3 8 Este 18 Este 0 -- -- 99
2019-04-01 14:00:00 10.5 4 Sudeste 15 Sudeste 0 -- -- 96
2019-04-01 13:00:00 10.8 7 Sudeste 12 Sudeste 0.4 -- -- 97
2019-04-01 12:00:00 9.8 7 Este 16 Este 0 -- -- 97
2019-04-01 11:00:00 10.4 8 Este 15 Este 0 -- -- 96
2019-04-01 10:00:00 11 5 Sudeste 7 Sudeste 0 -- -- 91
2019-04-01 09:00:00 9.8 5 Oeste 11 Oeste 0 -- -- 97
2019-04-01 08:00:00 6.9 11 Oeste 13 Noroeste 0 -- -- 100
2019-04-01 07:00:00 6.6 8 Oeste 18 Oeste 0 -- -- 100
2019-04-01 06:00:00 8.3 13 Oeste 19 Oeste 0 -- -- 99
2019-04-01 05:00:00 7.1 13 Oeste 19 Oeste 0 -- -- 97
2019-04-01 04:00:00 6.8 17 Oeste 22 Oeste 0 -- -- 96
2019-04-01 03:00:00 6.2 13 Oeste 20 Oeste 0 -- -- 100
2019-04-01 02:00:00 6.9 16 Oeste 21 Oeste 0 -- -- 100
2019-04-01 01:00:00 7.5 13 Oeste 24 Noroeste 0 -- -- 98
2019-04-01 00:00:00 8.2 15 Noroeste 26 Oeste 0 -- -- 99
2019-03-31 23:00:00 8.2 18 Noroeste 30 Noroeste 0 -- -- 99
2019-03-31 22:00:00 8.2 16 Noroeste 23 Noroeste 0 -- -- 100
2019-03-31 21:00:00 8.4 15 Noroeste 26 Noroeste 0 -- -- 99
2019-03-31 20:00:00 8.5 14 Oeste 23 Noroeste 0 -- -- 99
2019-03-31 19:00:00 9.8 13 Oeste 24 Oeste 0 -- -- 97
2019-03-31 18:00:00 10.5 14 Oeste 22 Noroeste 0 -- -- 95
2019-03-31 17:00:00 11.1 13 Noroeste 23 Noroeste 0 -- -- 93
2019-03-31 16:00:00 9.9 16 Noroeste 30 Noroeste 0 -- -- 100
2019-03-31 15:00:00 9.7 16 Noroeste 29 Noroeste 0 -- -- 100
2019-03-31 14:00:00 10.5 14 Noroeste 26 Oeste 0 -- -- 100
2019-03-31 13:00:00 10.6 16 Noroeste 31 Noroeste 0 -- -- 100
2019-03-31 12:00:00 9.8 23 Noroeste 42 Noroeste 0 -- -- 100
2019-03-31 11:00:00 9.7 23 Noroeste 41 Noroeste 0 -- -- 100
2019-03-31 10:00:00 9.2 28 Noroeste 48 Noroeste 0.2 -- -- 100
2019-03-31 09:00:00 9.3 25 Noroeste 38 Noroeste 0 -- -- 100
2019-03-31 08:00:00 8.7 21 Noroeste 46 Noroeste 0.2 -- -- 100
2019-03-31 07:00:00 9 21 Noroeste 34 Noroeste 0 -- -- 100
2019-03-31 06:00:00 8.5 18 Noroeste 27 Noroeste 0 -- -- 100
2019-03-31 05:00:00 8.7 20 Oeste 30 Oeste 0 -- -- 100
2019-03-31 04:00:00 8.6 17 Noroeste 33 Oeste 0 -- -- 100
2019-03-31 00:00:00 8.2 25 Oeste 31 Oeste 0 -- -- 99
2019-03-30 23:00:00 8 19 Oeste 26 Oeste 0 -- -- 100
2019-03-30 22:00:00 7.8 18 Oeste 27 Oeste 0 -- -- 99
2019-03-30 21:00:00 7.6 19 Oeste 25 Noroeste 0 -- -- 96
2019-03-30 20:00:00 7.4 19 Oeste 24 Noroeste 0 -- -- 96
2019-03-30 19:00:00 9 18 Noroeste 32 Oeste 0 -- -- 94
2019-03-30 18:00:00 9.5 26 Noroeste 34 Oeste 0 -- -- 89
2019-03-30 17:00:00 10.6 19 Oeste 28 Oeste 0 -- -- 80
2019-03-30 16:00:00 10.8 18 Noroeste 33 Noroeste 0 -- -- 88
2019-03-30 15:00:00 9.3 19 Noroeste 38 Oeste 0 -- -- 97
2019-03-30 14:00:00 11.8 23 Oeste 35 Oeste 0 -- -- 80
2019-03-30 13:00:00 11.4 24 Oeste 33 Noroeste 0 -- -- 83
2019-03-30 12:00:00 11.1 21 Noroeste 31 Noroeste 0 -- -- 88
2019-03-30 11:00:00 10.7 24 Oeste 38 Noroeste 0 -- -- 85
2019-03-30 10:00:00 9 23 Noroeste 37 Noroeste 0 -- -- 98
2019-03-30 09:00:00 8.3 23 Noroeste 32 Noroeste 0 -- -- 99
2019-03-30 08:00:00 7.6 21 Noroeste 37 Noroeste 0 -- -- 100
2019-03-30 07:00:00 7.7 26 Noroeste 38 Noroeste 2.8 -- -- 100
2019-03-30 06:00:00 7.5 19 Noroeste 37 Oeste 0 -- -- 100
2019-03-30 05:00:00 7.6 23 Noroeste 37 Noroeste 0.2 -- -- 100
2019-03-30 04:00:00 7.6 19 Oeste 28 Noroeste 0 -- -- 100
2019-03-30 03:00:00 7.7 14 Noroeste 26 Noroeste 1.8 -- -- 100
2019-03-30 02:00:00 7.3 6 Noroeste 22 Oeste 1.6 -- -- 99
2019-03-30 01:00:00 6.5 17 Oeste 21 Oeste 0 -- -- 99
2019-03-30 00:00:00 5.7 15 Oeste 19 Oeste 0 -- -- 100
2019-03-29 23:00:00 5.7 14 Oeste 17 Oeste 0 -- -- 100
2019-03-29 22:00:00 5.2 14 Oeste 18 Oeste 0 -- -- 100
2019-03-29 21:00:00 6.8 14 Oeste 17 Oeste 0 -- -- 99
2019-03-29 20:00:00 6.6 13 Oeste 22 Sudoeste 0 -- -- 98
2019-03-29 19:00:00 7.7 16 Oeste 27 Oeste 0.2 -- -- 99
2019-03-29 18:00:00 8.4 17 Noroeste 26 Oeste 7.6 -- -- 99
2019-03-29 17:00:00 9.1 8 Noroeste 24 Oeste 0 -- -- 97
2019-03-29 16:00:00 9.6 11 Oeste 24 Oeste 1.4 -- -- 98
2019-03-29 15:00:00 9.5 16 Oeste 27 Oeste 2.2 -- -- 97
2019-03-29 14:00:00 9.8 8 Noroeste 22 Oeste 1 -- -- 95
2019-03-29 13:00:00 9.6 15 Oeste 19 Oeste 1 -- -- 92
2019-03-29 12:00:00 10.3 9 Oeste 17 Oeste 0 -- -- 89
2019-03-29 11:00:00 10.1 2 Nordeste 15 Este 0 -- -- 81
2019-03-29 10:00:00 11.3 8 Sudoeste 15 Sudoeste 0 -- -- 73
2019-03-29 09:00:00 10.8 8 Oeste 16 Oeste 0 -- -- 66
2019-03-29 08:00:00 8.9 9 Oeste 12 Oeste 0 -- -- 79
2019-03-29 07:00:00 3.8 10 Oeste 15 Sudoeste 0 -- -- 89
2019-03-29 06:00:00 5.1 11 Sudoeste 15 Sudoeste 0 -- -- 97
2019-03-29 05:00:00 5.5 12 Oeste 14 Sudoeste 0.2 -- -- 98
2019-03-29 04:00:00 5.4 10 Sudoeste 18 Oeste 0 -- -- 97
2019-03-29 03:00:00 5.9 10 Oeste 16 Sudoeste 0 -- -- 98
2019-03-29 02:00:00 5.3 11 Sudoeste 14 Sudoeste 0 -- -- 96
2019-03-29 01:00:00 4.7 11 Sudoeste 14 Sudoeste 0 -- -- 94
2019-03-29 00:00:00 4.8 10 Oeste 13 Sudoeste 0 -- -- 99
2019-03-28 23:00:00 4.8 9 Oeste 13 Sudoeste 0 -- -- 100
2019-03-28 22:00:00 5.6 7 Oeste 8 Oeste 0 -- -- 100
2019-03-28 21:00:00 6.4 5 Oeste 10 Sudoeste 0 -- -- 100
2019-03-28 20:00:00 8.1 8 Noroeste 13 Oeste 0 -- -- 99
2019-03-28 19:00:00 9.1 8 Noroeste 20 Oeste 0 -- -- 99
2019-03-28 18:00:00 9.6 13 Noroeste 18 Noroeste 0.2 -- -- 98
2019-03-28 17:00:00 10.6 10 Noroeste 15 Noroeste 0.2 -- -- 96
2019-03-28 16:00:00 9.8 8 Noroeste 12 Noroeste 0.6 -- -- 99
2019-03-28 15:00:00 9.5 5 Noroeste 11 Noroeste 0.6 -- -- 99
2019-03-28 14:00:00 10.8 6 Nordeste 13 Este 1.2 -- -- 100
2019-03-28 13:00:00 10.5 6 Este 12 Este 0.8 -- -- 99
2019-03-28 12:00:00 10.1 3 Norte 10 Nordeste 1 -- -- 98
2019-03-28 11:00:00 10.1 7 Sudeste 21 Noroeste 0 -- -- 98
2019-03-28 10:00:00 11.4 5 Este 14 Este 0 -- -- 95
2019-03-28 09:00:00 11.6 4 Este 9 Este 0 -- -- 98
2019-03-28 08:00:00 8.2 3 Oeste 8 Oeste 0 -- -- 100
2019-03-28 07:00:00 7.1 3 Noroeste 8 Sudoeste 0 -- -- 100
2019-03-28 06:00:00 6.5 5 Oeste 12 Oeste 0 -- -- 100
2019-03-28 05:00:00 6.7 9 Oeste 11 Oeste 0 -- -- 100
2019-03-28 04:00:00 6.3 9 Oeste 10 Noroeste 0 -- -- 100
2019-03-28 03:00:00 6.9 8 Noroeste 10 Noroeste 0 -- -- 100
2019-03-28 02:00:00 8.1 5 Noroeste 10 Noroeste 0 -- -- 100
2019-03-28 01:00:00 8.7 7 Noroeste 13 Noroeste 0 -- -- 100
2019-03-28 00:00:00 8.5 5 Noroeste 11 Noroeste 0 -- -- 100
2019-03-27 23:00:00 9 6 Noroeste 14 Noroeste 0.2 -- -- 100
2019-03-27 22:00:00 9.4 5 Noroeste 17 Oeste 1.6 -- -- 100
2019-03-27 21:00:00 8.6 12 Oeste 17 Oeste 0 -- -- 100
2019-03-27 20:00:00 9.5 5 Noroeste 12 Oeste 1.8 -- -- 100
2019-03-27 19:00:00 9.8 8 Noroeste 14 Noroeste 4.4 -- -- 100
2019-03-27 18:00:00 10.3 3 Sudoeste 15 Noroeste 1.2 -- -- 99
2019-03-27 17:00:00 10.3 8 Noroeste 15 Noroeste 3.2 -- -- 98
2019-03-27 16:00:00 11.6 6 Noroeste 14 Noroeste 0 -- -- 91
2019-03-27 15:00:00 10.5 10 Noroeste 18 Noroeste 0.4 -- -- 97
2019-03-27 14:00:00 11.2 5 Noroeste 14 Nordeste 1 -- -- 96
2019-03-27 13:00:00 11.2 6 Nordeste 25 Noroeste 0 -- -- 90
2019-03-27 12:00:00 12.5 12 Noroeste 22 Noroeste 0 -- -- 83
2019-03-27 11:00:00 13.4 6 Noroeste 18 Noroeste 0 -- -- 86
2019-03-27 10:00:00 11.7 9 Noroeste 20 Noroeste 0 -- -- 92
2019-03-27 09:00:00 10.1 15 Noroeste 24 Noroeste 0 -- -- 99
2019-03-27 08:00:00 8.9 15 Noroeste 20 Noroeste 0 -- -- 100
2019-03-27 07:00:00 7.3 15 Oeste 23 Noroeste 0 -- -- 100
2019-03-27 06:00:00 7.9 17 Oeste 29 Noroeste 0 -- -- 100
2019-03-27 05:00:00 8.8 22 Noroeste 31 Noroeste 0 -- -- 100
2019-03-27 04:00:00 9.2 18 Noroeste 24 Noroeste 0 -- -- 100
2019-03-27 03:00:00 9.5 10 Noroeste 29 Noroeste 0 -- -- 100
2019-03-27 02:00:00 9.7 21 Noroeste 40 Noroeste 0 -- -- 100
2019-03-27 01:00:00 9.8 18 Noroeste 33 Noroeste 0 -- -- 100
2019-03-27 00:00:00 9.9 23 Noroeste 37 Noroeste 0 -- -- 100